createdAt,value
2022-11-22T00:01:20.794Z,1.45
2022-11-22T00:03:47.230Z,1.39
2022-11-22T00:06:13.602Z,1.33
2022-11-22T00:08:40.001Z,1.27
2022-11-22T00:11:06.446Z,1.19
2022-11-22T00:13:32.842Z,1.15
2022-11-22T00:16:03.375Z,1.10
2022-11-22T00:18:29.838Z,1.09
2022-11-22T00:20:56.497Z,1.07
2022-11-22T00:23:22.949Z,0.97
2022-11-22T00:25:49.385Z,0.95
2022-11-22T00:28:15.770Z,0.93
2022-11-22T00:30:42.173Z,0.90
2022-11-22T00:33:08.571Z,0.85
2022-11-22T00:35:35.146Z,0.78
2022-11-22T00:38:01.596Z,0.71
2022-11-22T00:40:27.978Z,0.67
2022-11-22T00:42:54.491Z,0.61
2022-11-22T00:45:20.934Z,0.57
2022-11-22T00:47:47.372Z,0.56
2022-11-22T00:50:13.787Z,0.62
2022-11-22T00:52:40.274Z,0.65
2022-11-22T00:55:07.135Z,0.69
2022-11-22T00:57:33.514Z,0.69
2022-11-22T01:00:00.129Z,0.69
2022-11-22T01:02:26.556Z,0.67
2022-11-22T01:04:53.081Z,0.72
2022-11-22T01:07:19.862Z,0.75
2022-11-22T01:09:46.309Z,0.74
2022-11-22T01:12:12.692Z,0.77
2022-11-22T01:14:39.354Z,0.77
2022-11-22T01:17:05.749Z,0.77
2022-11-22T01:19:32.463Z,0.78
2022-11-22T01:21:59.047Z,0.76
2022-11-22T01:24:25.453Z,0.74
2022-11-22T01:26:51.833Z,0.77
2022-11-22T01:29:18.258Z,0.77
2022-11-22T01:31:44.818Z,0.75
2022-11-22T01:34:11.218Z,0.79
2022-11-22T01:36:37.623Z,0.77
2022-11-22T01:39:04.078Z,0.72
2022-11-22T01:41:30.879Z,0.69
2022-11-22T01:43:57.591Z,0.67
2022-11-22T01:46:37.399Z,0.67
2022-11-22T01:49:07.464Z,0.68
2022-11-22T01:51:41.211Z,0.69
2022-11-22T01:54:13.557Z,0.69
2022-11-22T01:56:42.484Z,0.73
2022-11-22T01:59:12.623Z,0.74
2022-11-22T02:01:39.223Z,0.70
2022-11-22T02:04:06.692Z,0.71
2022-11-22T02:06:41.535Z,0.71
2022-11-22T02:09:11.646Z,0.74
2022-11-22T02:11:40.127Z,0.76
2022-11-22T02:14:08.200Z,0.83
2022-11-22T02:16:35.034Z,0.88
2022-11-22T02:19:01.623Z,0.94
2022-11-22T02:21:28.977Z,0.94
2022-11-22T02:24:19.667Z,0.92
2022-11-22T02:26:46.116Z,0.91
2022-11-22T02:29:13.709Z,0.90
2022-11-22T02:31:40.134Z,0.93
2022-11-22T02:34:07.061Z,0.97
2022-11-22T02:36:34.945Z,1.03
2022-11-22T02:39:01.347Z,1.04
2022-11-22T02:41:27.895Z,1.09
2022-11-22T02:43:54.470Z,1.06
2022-11-22T02:46:22.667Z,1.08
2022-11-22T02:48:49.562Z,1.07
2022-11-22T02:51:19.584Z,1.10
2022-11-22T02:53:47.261Z,1.13
2022-11-22T02:56:14.034Z,1.13
2022-11-22T02:58:40.466Z,1.16
2022-11-22T03:01:06.968Z,1.18
2022-11-22T03:03:33.506Z,1.18
2022-11-22T03:05:59.941Z,1.22
2022-11-22T03:08:26.420Z,1.26
2022-11-22T03:10:52.850Z,1.29
2022-11-22T03:13:19.446Z,1.31
2022-11-22T03:15:48.643Z,1.30
2022-11-22T03:18:15.259Z,1.22
2022-11-22T03:20:41.689Z,1.27
2022-11-22T03:23:08.085Z,1.31
2022-11-22T03:25:37.374Z,1.31
2022-11-22T03:28:03.793Z,1.31
2022-11-22T03:30:30.333Z,1.26
2022-11-22T03:32:56.723Z,1.25
2022-11-22T03:35:23.308Z,1.32
2022-11-22T03:37:49.882Z,1.36
2022-11-22T03:40:16.355Z,1.34
2022-11-22T03:42:42.729Z,1.31
2022-11-22T03:45:09.357Z,1.29
2022-11-22T03:47:35.785Z,1.33
2022-11-22T03:50:02.195Z,1.37
2022-11-22T03:52:29.585Z,1.43
2022-11-22T03:54:56.369Z,1.48
2022-11-22T03:57:22.990Z,1.52
2022-11-22T03:59:49.390Z,1.52
2022-11-22T04:02:17.044Z,1.52
2022-11-22T04:04:43.646Z,1.54
2022-11-22T04:07:10.046Z,1.52
2022-11-22T04:09:36.565Z,1.49
2022-11-22T04:12:03.168Z,1.45
2022-11-22T04:14:48.041Z,1.49
2022-11-22T04:17:34.983Z,1.57
2022-11-22T04:20:20.118Z,1.52
2022-11-22T04:22:54.734Z,1.50
2022-11-22T04:25:21.103Z,1.58
2022-11-22T04:27:47.488Z,1.64
2022-11-22T04:30:20.084Z,1.65
2022-11-22T04:32:46.987Z,1.63
2022-11-22T04:35:14.603Z,1.51
2022-11-22T04:37:41.295Z,1.52
2022-11-22T04:40:08.135Z,1.58
2022-11-22T04:42:53.555Z,1.55
2022-11-22T04:45:19.950Z,1.53
2022-11-22T04:47:59.041Z,1.53
2022-11-22T04:50:44.609Z,1.56
2022-11-22T04:53:11.023Z,1.62
2022-11-22T04:55:37.497Z,1.63
2022-11-22T04:58:03.910Z,1.57
2022-11-22T05:00:30.944Z,1.61
2022-11-22T05:02:58.054Z,1.68
2022-11-22T05:05:24.767Z,1.67
2022-11-22T05:07:51.353Z,1.71
2022-11-22T05:10:21.422Z,1.75
2022-11-22T05:12:51.057Z,1.80
2022-11-22T05:15:17.548Z,1.85
2022-11-22T05:17:43.975Z,1.90
2022-11-22T05:20:10.765Z,1.91
2022-11-22T05:22:56.029Z,1.93
2022-11-22T05:25:25.453Z,1.96
2022-11-22T05:27:55.421Z,1.94
2022-11-22T05:30:22.054Z,1.93
2022-11-22T05:32:48.453Z,1.94
2022-11-22T05:35:14.945Z,1.98
2022-11-22T05:37:41.406Z,2.02
2022-11-22T05:40:08.183Z,2.01
2022-11-22T05:42:34.630Z,1.90
2022-11-22T05:45:01.026Z,1.86
2022-11-22T05:47:27.632Z,1.90
2022-11-22T05:49:54.023Z,1.92
2022-11-22T05:52:20.397Z,1.93
2022-11-22T05:54:46.841Z,1.94
2022-11-22T05:57:13.299Z,1.91
2022-11-22T05:59:43.926Z,1.95
2022-11-22T06:02:10.925Z,1.95
2022-11-22T06:04:37.528Z,1.98
2022-11-22T06:07:09.563Z,1.99
2022-11-22T06:09:36.366Z,2.03
2022-11-22T06:12:02.784Z,2.05
2022-11-22T06:14:29.174Z,2.00
2022-11-22T06:16:55.632Z,1.95
2022-11-22T06:19:22.073Z,1.96
2022-11-22T06:21:48.470Z,1.97
2022-11-22T06:24:14.916Z,1.91
2022-11-22T06:26:41.508Z,1.84
2022-11-22T06:29:07.989Z,1.82
2022-11-22T06:31:34.506Z,1.83
2022-11-22T06:34:00.907Z,1.82
2022-11-22T06:36:31.381Z,1.84
2022-11-22T06:38:58.160Z,1.89
2022-11-22T06:41:25.949Z,1.89
2022-11-22T06:43:53.554Z,1.87
2022-11-22T06:46:21.527Z,1.93
2022-11-22T06:48:48.274Z,1.94
2022-11-22T06:51:14.660Z,2.01
2022-11-22T06:53:49.152Z,2.04
2022-11-22T06:56:16.119Z,2.09
2022-11-22T06:58:43.021Z,2.14
2022-11-22T07:01:10.684Z,2.11
2022-11-22T07:03:37.831Z,2.03
2022-11-22T07:06:04.349Z,2.00
2022-11-22T07:08:31.094Z,1.98
2022-11-22T07:11:04.744Z,1.90
2022-11-22T07:13:31.375Z,1.88
2022-11-22T07:15:58.362Z,1.92
2022-11-22T07:18:25.407Z,1.93
2022-11-22T07:20:51.835Z,1.96
2022-11-22T07:23:18.444Z,2.00
2022-11-22T07:25:48.723Z,2.02
2022-11-22T07:28:15.869Z,2.05
2022-11-22T07:30:44.140Z,2.07
2022-11-22T07:33:10.922Z,2.08
2022-11-22T07:35:37.341Z,2.08
2022-11-22T07:38:04.079Z,2.15
2022-11-22T07:40:30.542Z,2.19
2022-11-22T07:42:58.557Z,2.19
2022-11-22T07:45:25.262Z,2.16
2022-11-22T07:47:51.707Z,2.12
2022-11-22T07:50:18.101Z,2.10
2022-11-22T07:52:44.669Z,2.11
2022-11-22T07:55:14.194Z,2.10
2022-11-22T07:57:41.080Z,2.02
2022-11-22T08:00:07.779Z,1.97
2022-11-22T08:02:34.212Z,2.03
2022-11-22T08:05:00.616Z,2.08
2022-11-22T08:07:27.048Z,2.10
2022-11-22T08:09:53.454Z,2.12
2022-11-22T08:12:19.864Z,2.15
2022-11-22T08:14:46.324Z,2.14
2022-11-22T08:17:12.725Z,2.19
2022-11-22T08:19:39.385Z,2.23
2022-11-22T08:22:05.775Z,2.24
2022-11-22T08:24:32.985Z,2.23
2022-11-22T08:26:59.482Z,2.21
2022-11-22T08:29:25.955Z,2.20
2022-11-22T08:31:52.379Z,2.16
2022-11-22T08:34:18.940Z,2.10
2022-11-22T08:36:45.555Z,2.06
2022-11-22T08:39:11.955Z,2.02
2022-11-22T08:41:38.338Z,2.01
2022-11-22T08:44:04.873Z,1.98
2022-11-22T08:46:31.621Z,1.99
2022-11-22T08:48:58.285Z,1.98
2022-11-22T08:51:24.980Z,1.95
2022-11-22T08:53:51.425Z,1.92
2022-11-22T08:56:17.904Z,1.92
2022-11-22T08:58:44.417Z,1.95
2022-11-22T09:01:14.674Z,1.97
2022-11-22T09:03:42.161Z,2.00
2022-11-22T09:09:15.609Z,2.02
2022-11-22T09:11:45.678Z,2.03
2022-11-22T09:14:12.117Z,2.03
2022-11-22T09:16:38.506Z,2.05
2022-11-22T09:19:04.997Z,2.07
2022-11-22T09:21:31.435Z,2.06
2022-11-22T09:23:58.036Z,2.09
2022-11-22T09:26:25.287Z,2.12
2022-11-22T09:28:53.447Z,2.19
2022-11-22T09:31:20.573Z,2.28
2022-11-22T09:33:49.327Z,2.28
2022-11-22T09:36:19.811Z,2.23
2022-11-22T09:38:46.275Z,2.22
2022-11-22T09:41:15.548Z,2.22
2022-11-22T09:43:41.898Z,2.23
2022-11-22T09:46:08.307Z,2.22
2022-11-22T09:48:36.273Z,2.23
2022-11-22T09:51:14.966Z,2.23
2022-11-22T09:53:54.391Z,2.22
2022-11-22T09:56:24.246Z,2.26
2022-11-22T09:58:55.810Z,2.31
2022-11-22T10:01:34.611Z,2.28
2022-11-22T10:04:03.457Z,2.26
2022-11-22T10:06:43.476Z,2.30
2022-11-22T10:09:22.082Z,2.33
2022-11-22T10:11:53.216Z,2.34
2022-11-22T10:14:27.125Z,2.34
2022-11-22T10:16:57.701Z,2.35
2022-11-22T10:19:29.907Z,2.39
2022-11-22T10:21:56.572Z,2.43
2022-11-22T10:24:22.943Z,2.42
2022-11-22T10:26:49.998Z,2.43
2022-11-22T10:29:23.333Z,2.44
2022-11-22T10:31:53.783Z,2.52
2022-11-22T10:34:39.152Z,2.59
2022-11-22T10:37:14.302Z,2.62
2022-11-22T10:39:40.786Z,2.69
2022-11-22T10:42:26.223Z,2.76
2022-11-22T10:45:02.519Z,2.79
2022-11-22T10:47:43.138Z,2.84
2022-11-22T10:50:12.462Z,2.90
2022-11-22T10:52:39.020Z,2.94
2022-11-22T10:55:23.334Z,2.93
2022-11-22T10:57:49.673Z,2.99
2022-11-22T11:00:24.937Z,3.00
2022-11-22T11:03:10.040Z,3.05
2022-11-22T11:06:07.951Z,3.13
2022-11-22T11:09:02.824Z,3.15
2022-11-22T11:11:24.581Z,3.18
2022-11-22T11:13:53.035Z,3.21
2022-11-22T11:16:21.499Z,3.23
2022-11-22T11:18:51.304Z,3.30
2022-11-22T11:21:17.719Z,3.38
2022-11-22T11:23:44.191Z,3.47
2022-11-22T11:26:30.966Z,3.44
2022-11-22T11:29:16.843Z,3.47
2022-11-22T11:31:44.046Z,3.48
2022-11-22T11:34:22.402Z,3.53
2022-11-22T11:36:50.221Z,3.57
2022-11-22T11:39:44.838Z,3.63
2022-11-22T11:42:22.034Z,3.72
2022-11-22T11:44:48.522Z,3.80
2022-11-22T11:47:34.141Z,3.85
2022-11-22T11:50:00.860Z,3.89
2022-11-22T11:52:28.754Z,3.92
2022-11-22T11:54:57.800Z,3.97
2022-11-22T11:57:31.466Z,3.98
2022-11-22T11:59:59.466Z,4.03
2022-11-22T12:02:41.999Z,3.94
2022-11-22T12:05:11.482Z,3.87
2022-11-22T12:07:39.219Z,3.92
2022-11-22T12:10:29.707Z,3.92
2022-11-22T12:13:04.045Z,3.94
2022-11-22T12:15:33.918Z,3.97
2022-11-22T12:18:07.076Z,4.00
2022-11-22T12:20:46.384Z,3.95
2022-11-22T12:23:32.447Z,3.93
2022-11-22T12:25:59.227Z,3.95
2022-11-22T12:28:27.706Z,3.99
2022-11-22T12:30:56.945Z,3.98
2022-11-22T12:33:29.894Z,3.97
2022-11-22T12:35:56.817Z,4.01
2022-11-22T12:38:34.221Z,4.05
2022-11-22T12:41:03.261Z,4.07
2022-11-22T12:43:33.375Z,4.10
2022-11-22T12:46:03.425Z,4.08
2022-11-22T12:48:35.261Z,3.96
2022-11-22T12:51:21.923Z,3.91
2022-11-22T12:53:48.895Z,3.95
2022-11-22T12:56:29.832Z,4.00
2022-11-22T12:59:19.235Z,3.98
2022-11-22T13:01:49.457Z,3.97
2022-11-22T13:04:36.205Z,4.00
2022-11-22T13:07:25.706Z,3.95
2022-11-22T13:10:00.007Z,3.92
2022-11-22T13:12:34.327Z,3.86
2022-11-22T13:15:01.907Z,3.81
2022-11-22T13:17:33.438Z,3.80
2022-11-22T13:20:03.236Z,3.75
2022-11-22T13:22:38.456Z,3.70
2022-11-22T13:25:04.812Z,3.74
2022-11-22T13:27:41.030Z,3.72
2022-11-22T13:30:17.426Z,3.66
2022-11-22T13:32:43.856Z,3.65
2022-11-22T13:35:13.003Z,3.55
2022-11-22T13:37:41.596Z,3.47
2022-11-22T13:40:18.719Z,3.41
2022-11-22T13:42:45.172Z,3.51
2022-11-22T13:45:22.032Z,3.53
2022-11-22T13:47:48.701Z,3.59
2022-11-22T13:50:33.627Z,3.62
2022-11-22T13:53:15.791Z,3.65
2022-11-22T13:55:42.866Z,3.65
2022-11-22T13:58:24.415Z,3.51
2022-11-22T14:00:54.931Z,3.39
2022-11-22T14:03:32.370Z,3.26
2022-11-22T14:05:58.960Z,3.05
2022-11-22T14:08:30.551Z,2.88
2022-11-22T14:10:56.917Z,2.81
2022-11-22T14:13:23.269Z,2.78
2022-11-22T14:15:49.653Z,2.71
2022-11-22T14:18:34.836Z,2.70
2022-11-22T14:21:05.396Z,2.67
2022-11-22T14:23:50.818Z,2.61
2022-11-22T14:26:19.958Z,2.61
2022-11-22T14:29:11.392Z,2.69
2022-11-22T14:31:50.679Z,2.63
2022-11-22T14:34:19.652Z,2.62
2022-11-22T14:37:06.089Z,2.66
2022-11-22T14:39:44.834Z,2.71
2022-11-22T14:42:29.790Z,2.76
2022-11-22T14:44:56.293Z,2.74
2022-11-22T14:47:22.977Z,2.86
2022-11-22T14:49:51.163Z,2.90
2022-11-22T14:52:25.308Z,2.98
2022-11-22T14:54:56.703Z,3.00
2022-11-22T14:57:25.200Z,2.98
2022-11-22T15:00:04.261Z,2.93
2022-11-22T15:02:36.926Z,2.78
2022-11-22T15:09:13.828Z,2.73
2022-11-22T15:09:22.566Z,2.76
2022-11-22T15:11:26.659Z,2.68
2022-11-22T15:14:00.404Z,2.65
2022-11-22T15:59:39.532Z,2.63
2022-11-22T16:02:33.300Z,2.64
2022-11-22T16:06:04.696Z,2.69
2022-11-22T16:07:55.405Z,2.70
2022-11-22T16:10:22.987Z,2.60
2022-11-22T16:12:50.143Z,2.57
2022-11-22T16:15:19.644Z,2.49
2022-11-22T16:17:55.053Z,2.51
2022-11-22T16:20:28.024Z,2.53
2022-11-22T16:23:09.512Z,2.51
2022-11-22T16:25:37.466Z,2.50
2022-11-22T16:28:18.923Z,2.52
2022-11-22T16:30:45.644Z,2.49
2022-11-22T16:33:12.282Z,2.37
2022-11-22T16:35:38.989Z,2.33
2022-11-22T16:38:07.161Z,2.35
2022-11-22T16:40:39.129Z,2.31
2022-11-22T16:43:13.575Z,2.23
2022-11-22T16:45:40.730Z,2.21
2022-11-22T16:48:31.222Z,2.22
2022-11-22T16:50:59.649Z,2.26
2022-11-22T16:53:26.787Z,2.26
2022-11-22T16:55:53.185Z,2.22
2022-11-22T16:58:21.763Z,2.23
2022-11-22T17:00:48.824Z,2.16
2022-11-22T17:03:18.143Z,2.06
2022-11-22T17:05:44.596Z,2.08
2022-11-22T17:08:15.505Z,2.09
2022-11-22T17:10:43.680Z,2.17
2022-11-22T17:13:14.370Z,2.21
2022-11-22T17:15:42.202Z,2.19
2022-11-22T17:18:08.593Z,2.12
2022-11-22T17:20:35.601Z,2.12
2022-11-22T17:23:02.924Z,2.16
2022-11-22T17:25:29.310Z,2.19
2022-11-22T17:27:55.767Z,2.24
2022-11-22T17:30:22.227Z,2.22
2022-11-22T17:32:48.610Z,2.22
2022-11-22T17:35:15.002Z,2.26
2022-11-22T17:37:41.385Z,2.24
2022-11-22T17:40:09.030Z,2.22
2022-11-22T17:42:40.750Z,2.23
2022-11-22T17:45:07.832Z,2.29
2022-11-22T17:47:35.725Z,2.25
2022-11-22T17:50:02.139Z,2.22
2022-11-22T17:52:28.637Z,2.28
2022-11-22T17:54:55.063Z,2.30
2022-11-22T17:57:21.441Z,2.29
2022-11-22T17:59:47.897Z,2.26
2022-11-22T18:02:14.435Z,2.24
2022-11-22T18:04:42.600Z,2.17
2022-11-22T18:07:09.034Z,2.14
2022-11-22T18:09:35.548Z,2.21
2022-11-22T18:12:02.049Z,2.28
2022-11-22T18:14:30.618Z,2.35
2022-11-22T18:16:57.640Z,2.36
2022-11-22T18:19:24.051Z,2.35
2022-11-22T18:21:50.475Z,2.29
2022-11-22T18:24:16.861Z,2.28
2022-11-22T18:26:43.259Z,2.28
2022-11-22T18:29:41.217Z,2.27
2022-11-22T18:31:57.166Z,2.25
2022-11-22T18:34:23.672Z,2.22
2022-11-22T18:37:01.920Z,2.18
2022-11-22T18:39:34.265Z,2.21
2022-11-22T18:42:01.371Z,2.22
2022-11-22T18:44:27.815Z,2.23
2022-11-22T18:46:54.209Z,2.21
2022-11-22T18:49:20.672Z,2.16
2022-11-22T18:51:47.117Z,2.14
2022-11-22T18:54:13.583Z,2.14
2022-11-22T18:56:40.882Z,2.14
2022-11-22T18:59:08.081Z,2.19
2022-11-22T19:01:34.769Z,2.19
2022-11-22T19:04:01.703Z,2.18
2022-11-22T19:06:28.077Z,2.19
2022-11-22T19:08:55.371Z,2.20
2022-11-22T19:11:21.851Z,2.24
2022-11-22T19:13:48.222Z,2.26
2022-11-22T19:16:16.063Z,2.21
2022-11-22T19:18:43.327Z,2.17
2022-11-22T19:21:11.111Z,2.17
2022-11-22T19:23:37.910Z,2.20
2022-11-22T19:26:05.794Z,2.19
2022-11-22T19:28:32.648Z,2.17
2022-11-22T19:31:01.980Z,2.15
2022-11-22T19:33:28.550Z,2.14
2022-11-22T19:35:56.114Z,2.12
2022-11-22T19:38:22.599Z,2.09
2022-11-22T19:40:48.994Z,2.06
2022-11-22T19:43:16.617Z,2.05
2022-11-22T19:45:43.382Z,2.00
2022-11-22T19:48:09.771Z,1.96
2022-11-22T19:50:39.203Z,1.89
2022-11-22T19:53:05.925Z,1.87
2022-11-22T19:55:35.825Z,1.87
2022-11-22T19:58:02.479Z,1.82
2022-11-22T20:00:29.913Z,1.78
2022-11-22T20:02:56.501Z,1.73
2022-11-22T20:05:22.997Z,1.73
2022-11-22T20:07:49.410Z,1.67
2022-11-22T20:10:15.954Z,1.63
2022-11-22T20:12:45.679Z,1.53
2022-11-22T20:15:12.062Z,1.48
2022-11-22T20:17:38.488Z,1.45
2022-11-22T20:20:05.633Z,1.43
2022-11-22T20:22:32.009Z,1.39
2022-11-22T20:24:59.139Z,1.37
2022-11-22T20:27:25.731Z,1.33
2022-11-22T20:29:52.121Z,1.30
2022-11-22T20:32:18.643Z,1.27
2022-11-22T20:34:45.059Z,1.26
2022-11-22T20:37:11.432Z,1.22
2022-11-22T20:39:37.928Z,1.19
2022-11-22T20:42:32.654Z,1.15
2022-11-22T20:44:51.070Z,1.10
2022-11-22T20:47:17.530Z,1.06
2022-11-22T20:49:45.613Z,1.05
2022-11-22T20:52:12.221Z,1.03
2022-11-22T20:54:38.660Z,0.97
2022-11-22T20:57:05.116Z,0.92
2022-11-22T20:59:31.500Z,0.88
2022-11-22T21:01:57.915Z,0.84
2022-11-22T21:04:24.394Z,0.83
2022-11-22T21:06:50.752Z,0.81
2022-11-22T21:09:17.162Z,0.77
2022-11-22T21:11:45.296Z,0.76
2022-11-22T21:14:12.142Z,0.74
2022-11-22T21:16:38.739Z,0.70
2022-11-22T21:19:05.276Z,0.64
2022-11-22T21:21:33.140Z,0.59
2022-11-22T21:24:00.838Z,0.57
2022-11-22T21:26:27.871Z,0.56
2022-11-22T21:28:54.566Z,0.50
2022-11-22T21:31:21.864Z,0.48
2022-11-22T21:33:48.608Z,0.53
2022-11-22T21:36:15.075Z,0.48
2022-11-22T21:38:41.465Z,0.44
2022-11-22T21:41:38.034Z,0.39
2022-11-22T21:43:56.957Z,0.36
2022-11-22T21:46:24.310Z,0.40
2022-11-22T21:48:51.770Z,0.44
2022-11-22T21:51:18.212Z,0.44
2022-11-22T21:53:44.618Z,0.40
2022-11-22T21:56:11.074Z,0.35
2022-11-22T21:58:37.507Z,0.32
2022-11-22T22:01:09.520Z,0.30
2022-11-22T22:03:37.482Z,0.28
2022-11-22T22:06:04.021Z,0.23
2022-11-22T22:08:30.457Z,0.20
2022-11-22T22:11:02.528Z,0.20
2022-11-22T22:13:30.789Z,0.24
2022-11-22T22:15:58.419Z,0.25
2022-11-22T22:18:29.347Z,0.20
2022-11-22T22:20:59.726Z,0.20
2022-11-22T22:23:26.259Z,0.21
2022-11-22T22:25:56.734Z,0.24
2022-11-22T22:28:24.144Z,0.27
2022-11-22T22:30:50.594Z,0.26
2022-11-22T22:33:17.011Z,0.28
2022-11-22T22:35:43.407Z,0.29
2022-11-22T22:38:09.771Z,0.26
2022-11-22T22:40:36.120Z,0.27
2022-11-22T22:43:02.671Z,0.27
2022-11-22T22:45:29.052Z,0.26
2022-11-22T22:47:55.422Z,0.26
2022-11-22T22:50:21.988Z,0.26
2022-11-22T22:52:48.565Z,0.30
2022-11-22T22:55:14.974Z,0.34
2022-11-22T22:57:41.333Z,0.37
2022-11-22T23:00:09.294Z,0.36
2022-11-22T23:02:36.860Z,0.34
2022-11-22T23:05:03.385Z,0.32
2022-11-22T23:07:29.827Z,0.32
2022-11-22T23:09:56.297Z,0.32
2022-11-22T23:12:22.754Z,0.30
2022-11-22T23:14:49.202Z,0.27
2022-11-22T23:17:15.717Z,0.23
2022-11-22T23:19:42.097Z,0.20
2022-11-22T23:22:08.479Z,0.21
2022-11-22T23:24:34.841Z,0.18
2022-11-22T23:27:01.305Z,0.15
2022-11-22T23:29:27.752Z,0.11
2022-11-22T23:31:54.187Z,0.12
2022-11-22T23:34:20.593Z,0.07
2022-11-22T23:36:47.050Z,0.03
2022-11-22T23:39:13.496Z,0.00
2022-11-22T23:41:39.938Z,-0.01
2022-11-22T23:44:06.632Z,-0.07
2022-11-22T23:46:33.009Z,-0.11
2022-11-22T23:49:00.536Z,-0.16
2022-11-22T23:51:28.169Z,-0.20
2022-11-22T23:53:55.072Z,-0.22
2022-11-22T23:56:22.130Z,-0.25
2022-11-22T23:58:48.972Z,-0.28
